Time;durP1;ratioP1;P1;durP2;ratioP2;P2;SDS_P1;SDS_P2;PMS_P1;PMS_P2;Temp;Humidity;BMP_temperature;BMP_pressure;BME280_temperature;BME280_humidity;BME280_pressure;Samples;Min_cycle;Max_cycle;Signal;HPM_P1;HPM_P2
2023/01/21 00:01:07;;;;;;;7.65;3.80;;;5.50;46.90;;;;;;6226116;28;20380;-68
2023/01/21 00:04:08;;;;;;;7.78;3.72;;;5.50;47.00;;;;;;6225873;28;20026;-67
2023/01/21 00:07:09;;;;;;;10.88;4.07;;;5.40;47.10;;;;;;6242848;28;20426;-69
2023/01/21 00:10:10;;;;;;;10.63;4.15;;;5.40;47.30;;;;;;6248847;28;20033;-68
2023/01/21 00:13:11;;;;;;;8.52;3.63;;;5.40;47.40;;;;;;6250576;28;20060;-67
2023/01/21 00:16:12;;;;;;;5.60;3.42;;;5.40;47.50;;;;;;6250187;28;20398;-67
2023/01/21 00:19:13;;;;;;;15.65;4.53;;;5.40;47.50;;;;;;6248417;28;20088;-69
2023/01/21 00:22:14;;;;;;;14.82;4.65;;;5.40;47.50;;;;;;6250173;28;20018;-68
2023/01/21 00:25:15;;;;;;;6.18;2.95;;;5.40;47.60;;;;;;6250372;28;20030;-68
2023/01/21 00:28:15;;;;;;;7.63;2.88;;;5.40;47.60;;;;;;6232111;28;20030;-67
2023/01/21 00:31:16;;;;;;;18.92;4.10;;;5.40;47.70;;;;;;6250129;28;20052;-69
2023/01/21 00:34:17;;;;;;;12.68;4.60;;;5.40;47.80;;;;;;6248557;28;20402;-69
2023/01/21 00:37:18;;;;;;;11.32;4.10;;;5.30;47.80;;;;;;6248550;28;20061;-69
2023/01/21 00:40:20;;;;;;;8.68;4.68;;;5.40;47.80;;;;;;6249469;28;20037;-68
2023/01/21 00:43:21;;;;;;;8.75;4.20;;;5.40;47.80;;;;;;6248654;28;20037;-69
2023/01/21 00:46:22;;;;;;;5.25;3.08;;;5.40;47.90;;;;;;6248533;28;20393;-70
2023/01/21 00:49:22;;;;;;;9.07;4.43;;;5.40;47.90;;;;;;6248254;28;20076;-68
2023/01/21 00:52:23;;;;;;;5.57;2.80;;;5.40;48.10;;;;;;6231597;28;20099;-69
2023/01/21 00:55:24;;;;;;;13.20;3.15;;;5.30;48.00;;;;;;6235726;28;20040;-68
2023/01/21 00:58:25;;;;;;;6.28;3.30;;;5.30;48.00;;;;;;6224515;28;20022;-69
2023/01/21 01:01:29;;;;;;;4.90;2.83;;;5.30;48.10;;;;;;6225660;28;20128;-69
2023/01/21 01:04:29;;;;;;;6.60;2.65;;;5.30;48.10;;;;;;6249317;28;20048;-68
2023/01/21 01:07:30;;;;;;;7.68;3.38;;;5.30;48.20;;;;;;6248943;28;20137;-70
2023/01/21 01:10:31;;;;;;;7.43;3.67;;;5.30;48.20;;;;;;6249087;28;20037;-66
2023/01/21 01:13:33;;;;;;;10.70;3.55;;;5.20;48.30;;;;;;6248767;28;20070;-68
2023/01/21 01:16:34;;;;;;;9.57;2.70;;;5.20;48.40;;;;;;6248902;28;20084;-67
2023/01/21 01:19:35;;;;;;;10.15;3.35;;;5.20;48.50;;;;;;6248502;28;20026;-67
2023/01/21 01:22:36;;;;;;;9.13;3.30;;;5.20;48.50;;;;;;6248959;28;20033;-68
2023/01/21 01:25:37;;;;;;;9.30;3.90;;;5.20;48.50;;;;;;6248933;28;20112;-67
2023/01/21 01:28:38;;;;;;;13.82;3.83;;;5.20;48.50;;;;;;6251129;28;20497;-69
2023/01/21 01:31:39;;;;;;;7.15;3.55;;;5.20;48.50;;;;;;6250306;28;20424;-68
2023/01/21 01:34:39;;;;;;;8.98;2.90;;;5.20;48.50;;;;;;6252862;28;20041;-69
2023/01/21 01:37:40;;;;;;;5.68;2.65;;;5.20;48.50;;;;;;6253284;28;20033;-68
2023/01/21 01:40:41;;;;;;;15.00;2.85;;;5.20;48.50;;;;;;6250557;28;20140;-69
2023/01/21 01:44:03;;;;;;;7.75;3.70;;;5.20;48.50;;;;;;6259213;28;20025;-69
2023/01/21 01:47:04;;;;;;;6.55;2.80;;;5.20;48.50;;;;;;6248858;28;20040;-70
2023/01/21 01:50:09;;;;;;;5.45;3.05;;;5.20;48.50;;;;;;6247958;28;20435;-68
2023/01/21 01:53:12;;;;;;;5.15;3.03;;;5.20;48.60;;;;;;6247035;28;20091;-70
2023/01/21 01:56:14;;;;;;;4.55;2.42;;;5.10;48.50;;;;;;6227372;28;20046;-69
2023/01/21 01:59:16;;;;;;;6.13;3.20;;;5.10;49.20;;;;;;6237031;28;20036;-68
2023/01/21 02:02:18;;;;;;;8.55;2.75;;;5.10;48.60;;;;;;6247577;28;20402;-68
2023/01/21 02:05:19;;;;;;;8.68;3.40;;;5.10;48.60;;;;;;6247979;28;20436;-69
2023/01/21 02:08:21;;;;;;;4.50;2.40;;;5.10;48.60;;;;;;6247409;28;20030;-70
2023/01/21 02:11:22;;;;;;;4.72;2.50;;;5.00;48.60;;;;;;6247758;28;20440;-68
2023/01/21 02:14:26;;;;;;;5.40;3.15;;;5.00;48.60;;;;;;6246082;28;20044;-69
2023/01/21 02:17:57;;;;;;;9.60;2.83;;;5.00;48.50;;;;;;6246337;28;20111;-70
2023/01/21 02:21:03;;;;;;;5.10;3.00;;;5.00;48.50;;;;;;6244935;28;20054;-67
2023/01/21 02:24:30;;;;;;;9.93;3.40;;;5.00;48.60;;;;;;6244593;28;20076;-68
2023/01/21 02:28:01;;;;;;;4.15;2.72;;;5.00;48.50;;;;;;6244415;28;20033;-67
2023/01/21 02:31:31;;;;;;;7.40;3.20;;;5.00;48.40;;;;;;6211785;28;20198;-69
2023/01/21 02:35:02;;;;;;;3.85;2.00;;;4.90;48.40;;;;;;6227828;28;20049;-68
2023/01/21 02:38:19;;;;;;;12.27;3.03;;;4.90;48.30;;;;;;6227546;28;20041;-68
2023/01/21 02:41:25;;;;;;;4.63;2.65;;;4.90;48.30;;;;;;6244468;28;20132;-69
2023/01/21 02:45:05;;;;;;;4.47;1.85;;;4.80;48.50;;;;;;6244338;28;20052;-69
2023/01/21 02:48:38;;;;;;;5.40;2.55;;;5.00;48.60;;;;;;6146953;29;20043;-69
2023/01/21 02:51:44;;;;;;;3.30;2.83;;;4.70;48.60;;;;;;6053209;29;20084;-69
2023/01/21 02:54:49;;;;;;;3.55;1.83;;;4.60;48.70;;;;;;6052809;29;20071;-70
2023/01/21 02:57:55;;;;;;;5.32;2.15;;;4.60;48.80;;;;;;6052778;29;20478;-68
2023/01/21 03:01:16;;;;;;;7.25;1.88;;;4.60;48.70;;;;;;6053074;29;20537;-69
2023/01/21 03:04:26;;;;;;;7.38;2.58;;;4.60;48.80;;;;;;6053065;29;20044;-69
2023/01/21 03:07:50;;;;;;;11.20;3.05;;;4.60;48.80;;;;;;6071325;29;20088;-70
2023/01/21 03:10:59;;;;;;;7.53;3.03;;;4.60;48.80;;;;;;6076329;29;20140;-68
2023/01/21 03:17:48;;;;;;;3.08;1.83;;;4.60;48.80;;;;;;6075960;29;20072;-67
2023/01/21 03:20:55;;;;;;;3.10;1.77;;;4.70;48.80;;;;;;6076150;29;20135;-68
2023/01/21 03:23:58;;;;;;;4.18;2.65;;;4.70;48.80;;;;;;6084479;29;20056;-70
2023/01/21 03:27:00;;;;;;;5.63;2.25;;;4.70;48.80;;;;;;6149074;28;20061;-68
2023/01/21 03:30:08;;;;;;;5.13;2.13;;;4.70;48.80;;;;;;6221490;28;20061;-67
2023/01/21 03:33:11;;;;;;;1.75;1.52;;;4.70;48.70;;;;;;6221768;28;20085;-68
2023/01/21 03:36:54;;;;;;;5.75;2.30;;;4.60;48.60;;;;;;6221676;28;20038;-68
2023/01/21 03:40:08;;;;;;;7.15;3.10;;;4.60;48.70;;;;;;6218650;28;20123;-70
2023/01/21 03:43:09;;;;;;;5.07;2.28;;;4.60;48.70;;;;;;6218886;28;20034;-68
2023/01/21 03:46:34;;;;;;;3.35;1.75;;;4.60;48.80;;;;;;6219089;28;20077;-68
2023/01/21 03:49:45;;;;;;;5.20;2.92;;;4.60;48.80;;;;;;6218755;28;20192;-68
2023/01/21 03:52:46;;;;;;;3.05;1.95;;;4.50;48.80;;;;;;6223753;28;20140;-67
2023/01/21 03:55:50;;;;;;;7.32;2.15;;;4.50;49.50;;;;;;6243015;28;20067;-69
2023/01/21 03:58:51;;;;;;;3.78;1.60;;;4.50;49.60;;;;;;6243334;28;20525;-68
2023/01/21 04:01:51;;;;;;;3.35;1.85;;;4.40;48.90;;;;;;6239388;28;20029;-68
2023/01/21 04:04:53;;;;;;;4.55;1.33;;;4.40;48.80;;;;;;6242047;28;20092;-67
2023/01/21 04:07:53;;;;;;;4.72;2.58;;;4.30;49.30;;;;;;6203587;28;20046;-69
2023/01/21 04:10:54;;;;;;;5.18;1.92;;;4.30;48.70;;;;;;6218876;28;20064;-70
2023/01/21 04:13:55;;;;;;;2.33;1.25;;;4.20;48.70;;;;;;6218592;28;20490;-67
2023/01/21 04:16:56;;;;;;;6.53;2.25;;;4.20;48.80;;;;;;6229146;28;20457;-69
2023/01/21 04:19:57;;;;;;;3.85;1.52;;;4.20;48.70;;;;;;6219938;28;20026;-71
2023/01/21 04:22:58;;;;;;;5.68;1.63;;;4.10;48.80;;;;;;6221544;28;20018;-69
2023/01/21 04:25:59;;;;;;;3.75;2.47;;;4.10;48.80;;;;;;6223979;28;20034;-68
2023/01/21 04:28:59;;;;;;;13.98;2.85;;;4.10;48.80;;;;;;6223906;28;20052;-69
2023/01/21 04:32:00;;;;;;;4.43;2.03;;;4.10;48.90;;;;;;6225468;28;20049;-68
2023/01/21 04:35:02;;;;;;;3.38;1.98;;;4.10;48.90;;;;;;6224015;28;20033;-68
2023/01/21 04:38:03;;;;;;;2.70;1.70;;;4.10;48.80;;;;;;6223856;28;20037;-69
2023/01/21 04:41:04;;;;;;;4.68;2.42;;;4.10;48.70;;;;;;6225270;28;20096;-69
2023/01/21 04:44:05;;;;;;;4.78;2.38;;;4.00;48.70;;;;;;6224022;28;20061;-69
2023/01/21 04:47:06;;;;;;;10.30;2.10;;;4.00;48.70;;;;;;6231321;28;20029;-68
2023/01/21 04:50:08;;;;;;;5.20;2.03;;;4.10;48.80;;;;;;6249558;28;20052;-68
2023/01/21 04:53:09;;;;;;;3.80;1.63;;;4.10;48.70;;;;;;6249672;28;20025;-68
2023/01/21 04:56:10;;;;;;;3.75;1.95;;;4.00;48.50;;;;;;6229404;28;20413;-68
2023/01/21 04:59:11;;;;;;;4.35;2.72;;;4.00;48.40;;;;;;6236968;28;20030;-69
2023/01/21 05:02:11;;;;;;;3.95;1.95;;;4.00;48.30;;;;;;6249617;28;20021;-69
2023/01/21 05:05:12;;;;;;;6.65;1.73;;;4.10;48.30;;;;;;6249179;28;20137;-70
2023/01/21 05:08:13;;;;;;;3.20;1.90;;;4.10;48.10;;;;;;6248999;28;20513;-68
2023/01/21 05:11:17;;;;;;;4.35;2.17;;;4.10;48.10;;;;;;6249298;28;20044;-68
2023/01/21 05:14:17;;;;;;;4.65;2.35;;;4.10;48.10;;;;;;6247608;28;20553;-68
2023/01/21 05:17:18;;;;;;;2.75;1.45;;;4.10;48.10;;;;;;6248840;28;20027;-69
2023/01/21 05:20:19;;;;;;;5.68;2.42;;;4.10;48.00;;;;;;6248708;28;20021;-68
2023/01/21 05:23:20;;;;;;;2.90;1.65;;;4.00;47.80;;;;;;6247563;28;20384;-69
2023/01/21 05:26:21;;;;;;;3.88;1.90;;;4.00;47.80;;;;;;6248825;28;20029;-68
2023/01/21 05:29:22;;;;;;;4.63;2.25;;;3.90;47.50;;;;;;6248580;28;20029;-69
2023/01/21 05:32:23;;;;;;;3.78;1.77;;;3.90;47.90;;;;;;6248797;28;20028;-70
2023/01/21 05:35:24;;;;;;;3.85;1.45;;;3.80;48.00;;;;;;6247809;28;20026;-69
2023/01/21 05:38:24;;;;;;;3.30;1.75;;;3.80;48.60;;;;;;6247023;28;20029;-68
2023/01/21 05:41:25;;;;;;;4.60;2.25;;;3.80;47.90;;;;;;6247270;28;20040;-69
2023/01/21 05:44:26;;;;;;;3.78;2.13;;;3.70;47.90;;;;;;6232107;28;20073;-69
2023/01/21 05:47:27;;;;;;;4.50;1.95;;;3.70;47.80;;;;;;6238571;28;20061;-69
2023/01/21 05:50:28;;;;;;;2.55;1.83;;;3.60;47.80;;;;;;6223363;28;20029;-68
2023/01/21 05:53:28;;;;;;;2.30;1.58;;;3.60;47.90;;;;;;6222350;28;20429;-70
2023/01/21 05:56:29;;;;;;;4.43;2.17;;;3.50;47.90;;;;;;6249104;28;20381;-69
2023/01/21 05:59:30;;;;;;;5.90;2.60;;;3.50;48.00;;;;;;6250386;28;20437;-69
2023/01/21 06:02:31;;;;;;;1.65;1.33;;;3.40;48.00;;;;;;6248056;28;20028;-67
2023/01/21 06:05:32;;;;;;;0.90;0.85;;;3.40;48.10;;;;;;6246573;28;20060;-68
2023/01/21 06:08:32;;;;;;;3.03;1.48;;;3.40;48.20;;;;;;6247530;28;20053;-69
2023/01/21 06:11:33;;;;;;;1.17;1.00;;;3.30;48.10;;;;;;6247640;28;20042;-68
2023/01/21 06:14:34;;;;;;;2.00;1.23;;;3.30;48.20;;;;;;6247901;28;20142;-68
2023/01/21 06:17:38;;;;;;;0.57;0.52;;;3.20;48.20;;;;;;6246412;28;20079;-71
2023/01/21 06:20:39;;;;;;;2.30;1.23;;;3.10;48.30;;;;;;6250867;28;20040;-67
2023/01/21 06:23:40;;;;;;;3.75;1.25;;;3.10;48.30;;;;;;6267619;28;20124;-67
2023/01/21 06:26:41;;;;;;;1.55;1.42;;;3.10;48.40;;;;;;6247373;28;20025;-71
2023/01/21 06:29:42;;;;;;;5.05;2.03;;;3.10;48.50;;;;;;6247288;28;20120;-70
2023/01/21 06:32:43;;;;;;;2.40;1.33;;;3.10;48.60;;;;;;6229838;28;20061;-69
2023/01/21 06:35:44;;;;;;;4.07;1.63;;;3.10;48.60;;;;;;6245730;28;20090;-70
2023/01/21 06:38:45;;;;;;;3.00;1.60;;;3.20;48.60;;;;;;6246685;28;20026;-69
2023/01/21 06:41:46;;;;;;;8.60;1.63;;;3.20;48.70;;;;;;6271164;28;20025;-69
2023/01/21 06:44:46;;;;;;;5.80;2.25;;;3.20;48.70;;;;;;6271820;28;20035;-68
2023/01/21 06:47:47;;;;;;;4.88;2.03;;;3.20;48.80;;;;;;6270374;28;20045;-69
2023/01/21 06:50:48;;;;;;;4.60;1.60;;;3.20;48.80;;;;;;6264725;28;20080;-69
2023/01/21 06:53:49;;;;;;;3.15;1.67;;;3.20;48.80;;;;;;6245883;28;20489;-68
2023/01/21 06:56:50;;;;;;;3.75;1.98;;;3.20;48.70;;;;;;6221189;28;20096;-69
2023/01/21 06:59:50;;;;;;;1.75;1.20;;;3.20;48.70;;;;;;6237128;28;20033;-68
2023/01/21 07:02:58;;;;;;;4.40;2.33;;;3.10;48.70;;;;;;6222529;28;20347;-70
2023/01/21 07:05:59;;;;;;;5.20;2.33;;;3.20;48.80;;;;;;6221095;28;20390;-71
2023/01/21 07:09:00;;;;;;;2.88;2.08;;;3.20;48.90;;;;;;6221911;28;20030;-69
2023/01/21 07:12:01;;;;;;;3.55;1.90;;;3.20;49.10;;;;;;6220955;28;20030;-70
2023/01/21 07:15:01;;;;;;;11.40;1.63;;;3.20;49.10;;;;;;6220712;28;20030;-71
2023/01/21 07:18:02;;;;;;;6.47;2.38;;;3.10;49.20;;;;;;6221675;28;20037;-68
2023/01/21 07:21:03;;;;;;;2.55;1.65;;;3.10;49.10;;;;;;6221917;28;20509;-69
2023/01/21 07:24:04;;;;;;;1.77;1.42;;;3.10;49.10;;;;;;6222342;28;20033;-69
2023/01/21 07:27:05;;;;;;;4.32;1.38;;;3.10;49.00;;;;;;6220588;28;20034;-69
2023/01/21 07:30:07;;;;;;;7.57;1.02;;;3.10;48.80;;;;;;6221490;28;20037;-70
2023/01/21 07:33:09;;;;;;;2.88;1.45;;;3.00;48.40;;;;;;6237086;28;20060;-70
2023/01/21 07:36:10;;;;;;;4.35;1.63;;;3.00;48.30;;;;;;6230384;28;20061;-69
2023/01/21 07:39:11;;;;;;;3.00;1.20;;;2.90;48.40;;;;;;6246011;28;20032;-69
2023/01/21 07:42:11;;;;;;;0.80;0.80;;;2.90;48.50;;;;;;6246152;28;20067;-70
2023/01/21 07:45:12;;;;;;;2.67;1.55;;;2.80;48.40;;;;;;6245131;28;20038;-70
2023/01/21 07:48:13;;;;;;;21.90;1.80;;;2.80;48.40;;;;;;6245504;28;20114;-71
2023/01/21 07:51:14;;;;;;;2.22;1.92;;;2.80;48.60;;;;;;6246215;28;20370;-69
2023/01/21 07:54:15;;;;;;;2.38;1.58;;;2.80;48.60;;;;;;6241586;28;20387;-70
2023/01/21 07:57:15;;;;;;;5.70;1.65;;;2.80;48.60;;;;;;6221728;28;20033;-69
2023/01/21 08:00:17;;;;;;;8.55;1.98;;;2.80;48.60;;;;;;6224263;28;20034;-68
2023/01/21 08:03:20;;;;;;;3.05;1.40;;;2.80;48.70;;;;;;6226920;28;20521;-70
2023/01/21 08:06:21;;;;;;;1.13;0.90;;;2.80;48.70;;;;;;6226311;28;20026;-69
2023/01/21 08:09:23;;;;;;;1.17;1.10;;;2.80;48.60;;;;;;6226209;28;20049;-69
2023/01/21 08:12:24;;;;;;;5.05;2.20;;;2.80;48.70;;;;;;6225942;28;20034;-69
2023/01/21 08:15:29;;;;;;;2.15;1.35;;;2.80;48.70;;;;;;6226142;28;20026;-68
2023/01/21 08:18:29;;;;;;;3.10;1.70;;;2.80;48.70;;;;;;6225784;28;20026;-69
2023/01/21 08:21:30;;;;;;;2.97;1.73;;;2.80;48.70;;;;;;6226270;28;20571;-71
2023/01/21 08:24:31;;;;;;;3.88;2.20;;;2.80;48.60;;;;;;6225920;28;20029;-69
2023/01/21 08:27:32;;;;;;;3.17;1.60;;;2.80;48.60;;;;;;6225734;28;20041;-70
2023/01/21 08:30:33;;;;;;;8.05;2.28;;;2.90;48.80;;;;;;6224171;28;20034;-68
2023/01/21 08:33:34;;;;;;;2.75;1.95;;;2.90;48.70;;;;;;6261863;28;20094;-71
2023/01/21 08:36:37;;;;;;;1.23;0.98;;;3.50;49.00;;;;;;6276452;28;20120;-70
2023/01/21 08:39:38;;;;;;;3.90;2.15;;;3.00;48.70;;;;;;6296567;28;20025;-70
2023/01/21 08:42:39;;;;;;;7.90;2.80;;;3.10;48.70;;;;;;6273229;28;20036;-70
2023/01/21 08:45:40;;;;;;;4.68;2.03;;;3.20;48.60;;;;;;6249944;28;20068;-69
2023/01/21 08:48:41;;;;;;;6.10;2.22;;;3.30;48.50;;;;;;6248013;28;20136;-70
2023/01/21 08:51:42;;;;;;;6.65;2.83;;;3.40;48.50;;;;;;6249405;28;20042;-69
2023/01/21 08:54:43;;;;;;;4.57;2.53;;;3.50;48.40;;;;;;6240083;28;20038;-68
2023/01/21 08:57:44;;;;;;;5.20;1.88;;;3.60;48.30;;;;;;6224390;28;20029;-68
2023/01/21 09:00:45;;;;;;;4.40;2.13;;;3.70;48.10;;;;;;6224599;28;20026;-70
2023/01/21 09:03:45;;;;;;;11.75;2.88;;;3.70;48.00;;;;;;6239529;28;20037;-70
2023/01/21 09:06:47;;;;;;;5.55;2.65;;;3.90;48.00;;;;;;6224448;28;20113;-68
2023/01/21 09:09:48;;;;;;;6.20;1.55;;;4.00;47.90;;;;;;6223388;28;20414;-70
2023/01/21 09:12:49;;;;;;;4.35;2.03;;;4.10;47.70;;;;;;6223711;28;20463;-69
2023/01/21 09:15:49;;;;;;;5.30;2.28;;;4.20;47.40;;;;;;6222938;28;20037;-70
2023/01/21 09:18:50;;;;;;;3.92;2.25;;;4.30;47.10;;;;;;6222672;28;20034;-71
2023/01/21 09:21:54;;;;;;;5.30;2.75;;;4.40;46.90;;;;;;6222553;28;20021;-70
2023/01/21 09:24:55;;;;;;;9.98;2.88;;;4.50;46.70;;;;;;6238947;28;20026;-70
2023/01/21 09:27:56;;;;;;;4.93;2.10;;;4.50;46.60;;;;;;6226119;28;20362;-69
2023/01/21 09:31:04;;;;;;;5.72;2.70;;;4.60;46.50;;;;;;6248423;28;20037;-68
2023/01/21 09:34:05;;;;;;;2.83;1.80;;;4.70;46.40;;;;;;6248680;28;20034;-70
2023/01/21 09:37:06;;;;;;;3.85;2.15;;;4.80;46.40;;;;;;6248521;28;20037;-70
2023/01/21 09:40:14;;;;;;;3.53;1.88;;;4.90;46.20;;;;;;6248067;28;20032;-69
2023/01/21 09:43:39;;;;;;;4.80;2.55;;;4.90;46.00;;;;;;6247241;28;20141;-71
2023/01/21 09:46:42;;;;;;;4.35;2.60;;;5.00;45.90;;;;;;6230561;28;20565;-69
2023/01/21 09:49:49;;;;;;;6.28;3.40;;;5.10;45.60;;;;;;6246349;28;20428;-69
2023/01/21 09:53:03;;;;;;;6.50;2.23;;;5.10;45.60;;;;;;6247902;28;20041;-68
2023/01/21 09:56:14;;;;;;;7.05;4.05;;;5.10;45.50;;;;;;6247623;28;20139;-69
2023/01/21 09:59:25;;;;;;;3.50;2.30;;;5.20;45.50;;;;;;6247658;28;20068;-70
2023/01/21 10:02:56;;;;;;;5.07;2.88;;;5.20;45.30;;;;;;6246475;28;20029;-70
2023/01/21 10:06:08;;;;;;;3.90;2.50;;;5.30;45.30;;;;;;6248054;28;20419;-71
2023/01/21 10:09:32;;;;;;;6.63;2.97;;;5.30;45.20;;;;;;6245846;28;20034;-70
2023/01/21 10:13:00;;;;;;;7.50;3.15;;;5.40;45.30;;;;;;6247844;28;20034;-68
2023/01/21 10:16:07;;;;;;;4.50;1.90;;;5.50;45.20;;;;;;6250501;28;20033;-70
2023/01/21 10:19:15;;;;;;;6.22;2.97;;;5.80;45.10;;;;;;6248029;28;20033;-69
2023/01/21 10:22:23;;;;;;;7.43;3.70;;;6.10;44.60;;;;;;6230011;28;20030;-69
2023/01/21 10:25:26;;;;;;;8.23;3.70;;;6.40;44.00;;;;;;6216878;28;20120;-69
2023/01/21 10:28:32;;;;;;;4.63;2.80;;;6.60;43.80;;;;;;6237236;28;20041;-70
2023/01/21 10:31:41;;;;;;;5.10;2.40;;;6.80;43.20;;;;;;6222522;28;20030;-70
2023/01/21 10:34:53;;;;;;;7.43;3.63;;;6.90;43.00;;;;;;6221013;28;20128;-70
2023/01/21 10:38:04;;;;;;;5.32;2.75;;;7.00;43.00;;;;;;6245553;28;20025;-68
2023/01/21 10:41:39;;;;;;;6.68;3.58;;;7.20;42.70;;;;;;6245272;28;20029;-70
2023/01/21 10:44:53;;;;;;;8.55;3.85;;;7.40;42.20;;;;;;6245507;28;20120;-68
2023/01/21 10:48:18;;;;;;;6.55;3.35;;;7.70;41.90;;;;;;6246420;28;20059;-69
2023/01/21 10:51:44;;;;;;;8.82;3.47;;;7.80;41.70;;;;;;6244190;28;20428;-70
2023/01/21 10:55:01;;;;;;;4.20;2.63;;;8.00;41.20;;;;;;6244797;28;20046;-70
2023/01/21 10:58:19;;;;;;;5.90;3.15;;;7.90;40.40;;;;;;6234952;28;20067;-68
2023/01/21 11:01:36;;;;;;;9.40;3.58;;;8.20;40.40;;;;;;6260097;28;20046;-69
2023/01/21 11:04:39;;;;;;;11.48;4.05;;;8.40;40.10;;;;;;6245221;28;20037;-69
2023/01/21 11:07:42;;;;;;;14.80;3.80;;;8.70;39.90;;;;;;6243388;28;20044;-70
2023/01/21 11:10:44;;;;;;;14.05;5.32;;;9.00;39.30;;;;;;6243510;28;20414;-69
2023/01/21 11:13:45;;;;;;;10.80;4.80;;;9.20;38.70;;;;;;6243578;28;20066;-71
2023/01/21 11:16:50;;;;;;;10.40;4.15;;;9.30;38.50;;;;;;6243239;28;20127;-69
2023/01/21 11:20:01;;;;;;;9.90;5.03;;;9.60;38.30;;;;;;6242796;28;20144;-70
2023/01/21 11:23:06;;;;;;;14.98;4.43;;;10.00;37.90;;;;;;6243255;28;20041;-70
2023/01/21 11:26:19;;;;;;;9.07;4.22;;;10.50;37.20;;;;;;6243291;28;20041;-69
2023/01/21 11:29:21;;;;;;;9.20;3.65;;;11.00;36.40;;;;;;6204724;28;20046;-70
2023/01/21 11:32:26;;;;;;;15.35;3.90;;;11.30;35.40;;;;;;6230163;28;20037;-70
2023/01/21 11:35:27;;;;;;;7.32;3.15;;;11.60;34.80;;;;;;6247974;28;20040;-69
2023/01/21 11:38:33;;;;;;;6.80;3.65;;;11.80;33.80;;;;;;6232601;28;20033;-69
2023/01/21 11:41:34;;;;;;;5.15;2.97;;;11.80;33.40;;;;;;6250624;28;20108;-70
2023/01/21 11:44:48;;;;;;;7.20;3.53;;;11.50;33.80;;;;;;6232985;28;20121;-70
2023/01/21 11:47:50;;;;;;;7.88;3.78;;;11.10;34.30;;;;;;6250474;28;20064;-69
2023/01/21 11:51:05;;;;;;;6.97;3.40;;;10.70;34.90;;;;;;6249335;28;20474;-70
2023/01/21 11:54:06;;;;;;;8.25;4.18;;;10.50;35.50;;;;;;6247423;28;20549;-70
2023/01/21 11:57:24;;;;;;;6.22;4.10;;;10.90;34.90;;;;;;6225928;28;20030;-72
2023/01/21 12:00:26;;;;;;;11.45;5.18;;;11.40;34.20;;;;;;6226028;28;20092;-70
2023/01/21 12:03:41;;;;;;;17.70;6.35;;;11.80;34.00;;;;;;6225975;28;20101;-69
2023/01/21 12:06:46;;;;;;;10.23;3.90;;;12.20;33.20;;;;;;6224781;28;20037;-69
2023/01/21 12:10:08;;;;;;;10.45;4.63;;;12.30;32.00;;;;;;6240705;28;20137;-69
2023/01/21 12:13:23;;;;;;;18.63;5.32;;;12.20;32.50;;;;;;6247305;28;20048;-68
2023/01/21 12:16:52;;;;;;;8.13;3.90;;;11.80;32.90;;;;;;6231464;28;20489;-70
2023/01/21 12:20:16;;;;;;;8.10;3.70;;;11.50;33.20;;;;;;6272086;28;20043;-70
2023/01/21 12:23:33;;;;;;;10.13;3.67;;;11.10;33.60;;;;;;6230787;28;20049;-69
2023/01/21 12:26:52;;;;;;;5.40;3.50;;;10.40;33.70;;;;;;6247914;28;20095;-69
2023/01/21 12:30:06;;;;;;;17.98;4.68;;;10.20;34.10;;;;;;6227699;28;20129;-69
2023/01/21 12:33:15;;;;;;;7.95;4.00;;;10.00;34.80;;;;;;6222965;28;20049;-72
2023/01/21 12:36:22;;;;;;;9.07;3.80;;;9.70;34.90;;;;;;6222900;28;20085;-70
2023/01/21 12:39:35;;;;;;;11.23;4.60;;;9.50;35.10;;;;;;6222388;28;20567;-73
2023/01/21 12:42:42;;;;;;;3.83;2.45;;;9.40;35.50;;;;;;6222559;28;20060;-71
2023/01/21 12:46:09;;;;;;;15.82;4.45;;;9.30;35.60;;;;;;6222131;28;20033;-70
2023/01/21 12:49:38;;;;;;;8.57;3.55;;;9.30;35.50;;;;;;6216245;28;20034;-70
2023/01/21 12:52:47;;;;;;;;;;;9.20;35.70;;;;;;6181625;28;20053;-70
2023/01/21 12:56:08;;;;;;;11.30;3.28;;;9.20;36.00;;;;;;6180798;28;19917;-69
2023/01/21 12:59:29;;;;;;;6.78;3.33;;;9.70;36.20;;;;;;6203229;28;20148;-69
2023/01/21 13:02:58;;;;;;;6.90;2.55;;;9.40;36.00;;;;;;6223595;28;20549;-71
2023/01/21 13:06:02;;;;;;;4.20;2.23;;;9.40;35.80;;;;;;6239474;28;20042;-70
2023/01/21 13:09:10;;;;;;;3.90;2.63;;;9.30;35.80;;;;;;6223946;28;20269;-69
2023/01/21 13:12:26;;;;;;;5.18;3.15;;;9.30;35.70;;;;;;6207431;28;20148;-70
2023/01/21 13:15:33;;;;;;;7.03;2.60;;;9.20;35.80;;;;;;6247278;28;20131;-69
2023/01/21 13:18:44;;;;;;;5.73;2.40;;;9.00;35.90;;;;;;6249124;28;20029;-69
2023/01/21 13:22:05;;;;;;;4.45;2.72;;;9.00;36.00;;;;;;6249135;28;20060;-72
2023/01/21 13:25:28;;;;;;;5.35;2.55;;;8.90;36.20;;;;;;6248197;28;20458;-71
2023/01/21 13:28:41;;;;;;;6.82;3.45;;;8.90;36.30;;;;;;6248471;28;20461;-68
2023/01/21 13:31:52;;;;;;;6.15;2.85;;;8.90;36.30;;;;;;6246954;28;20552;-69
2023/01/21 13:35:06;;;;;;;7.25;3.10;;;8.90;36.30;;;;;;6247886;28;20030;-68
2023/01/21 13:38:32;;;;;;;3.58;2.00;;;8.80;36.40;;;;;;6246907;28;20036;-70
2023/01/21 13:41:57;;;;;;;5.18;2.65;;;8.80;36.40;;;;;;6247695;28;20028;-68
2023/01/21 13:45:11;;;;;;;5.60;2.72;;;8.80;36.50;;;;;;6248646;28;20044;-69
2023/01/21 13:48:14;;;;;;;5.10;2.53;;;8.80;36.50;;;;;;6254389;28;20030;-69
2023/01/21 13:51:36;;;;;;;1.95;1.70;;;8.90;36.60;;;;;;6255967;28;20057;-70
2023/01/21 13:54:40;;;;;;;3.80;2.50;;;8.90;36.50;;;;;;6242168;28;20030;-71
2023/01/21 13:58:02;;;;;;;4.57;2.17;;;8.90;36.50;;;;;;6221289;28;20448;-71
2023/01/21 14:01:14;;;;;;;5.32;1.88;;;8.70;36.60;;;;;;6223424;28;20049;-71
2023/01/21 14:04:25;;;;;;;4.53;2.20;;;8.60;36.70;;;;;;6206604;28;20394;-71
2023/01/21 14:07:45;;;;;;;3.88;2.25;;;8.50;36.70;;;;;;6223188;28;20026;-67
2023/01/21 14:11:12;;;;;;;3.45;2.20;;;8.50;36.70;;;;;;6236946;28;20079;-71
2023/01/21 14:14:34;;;;;;;8.73;2.75;;;8.40;37.40;;;;;;6227309;28;20052;-71
2023/01/21 14:18:08;;;;;;;12.45;3.35;;;8.30;36.80;;;;;;6227631;28;20148;-68
2023/01/21 14:21:19;;;;;;;3.85;2.35;;;8.20;37.00;;;;;;6227775;28;20319;-70
2023/01/21 14:24:49;;;;;;;3.88;2.28;;;8.10;37.20;;;;;;6227644;28;20041;-69
2023/01/21 14:28:15;;;;;;;7.20;2.42;;;8.10;37.30;;;;;;6147008;28;20051;-71
2023/01/21 14:31:30;;;;;;;6.28;2.33;;;8.10;37.40;;;;;;6148723;28;20035;-70
2023/01/21 14:35:16;;;;;;;2.75;1.90;;;8.10;37.60;;;;;;6131997;28;20102;-70
2023/01/21 14:38:27;;;;;;;4.72;2.40;;;8.20;37.70;;;;;;6122375;28;20500;-71
2023/01/21 14:42:09;;;;;;;5.28;2.42;;;8.10;37.60;;;;;;6150727;28;20027;-71
2023/01/21 14:45:12;;;;;;;3.53;2.20;;;8.00;37.70;;;;;;6077208;29;20049;-68
2023/01/21 14:48:32;;;;;;;4.57;2.15;;;8.00;37.70;;;;;;6076491;29;20111;-69
2023/01/21 14:51:36;;;;;;;3.42;1.45;;;7.90;37.60;;;;;;6040532;29;20526;-70
2023/01/21 14:54:40;;;;;;;3.45;1.95;;;7.90;37.80;;;;;;6036195;29;20175;-72
2023/01/21 14:57:41;;;;;;;3.13;2.03;;;7.90;37.90;;;;;;6067932;29;20534;-70
2023/01/21 15:00:44;;;;;;;4.47;2.30;;;7.90;38.00;;;;;;6052815;29;20060;-70
2023/01/21 15:03:49;;;;;;;7.05;2.30;;;7.90;38.00;;;;;;6075294;29;20400;-69
2023/01/21 15:06:54;;;;;;;3.75;1.95;;;7.90;38.10;;;;;;6130675;28;20046;-68
2023/01/21 15:09:58;;;;;;;4.68;2.30;;;8.00;38.20;;;;;;6145680;28;20039;-69
2023/01/21 15:13:04;;;;;;;5.15;2.58;;;8.00;38.10;;;;;;6130762;29;20039;-70
2023/01/21 15:16:35;;;;;;;2.88;1.52;;;7.90;38.10;;;;;;6212975;28;20037;-69
2023/01/21 15:19:36;;;;;;;3.03;1.65;;;7.90;38.20;;;;;;6244365;28;20116;-71
2023/01/21 15:22:39;;;;;;;5.85;1.63;;;7.80;38.10;;;;;;6245881;28;20029;-69
2023/01/21 15:26:16;;;;;;;3.80;1.77;;;7.80;38.30;;;;;;6246077;28;20108;-70
2023/01/21 15:30:05;;;;;;;4.25;1.83;;;7.80;38.50;;;;;;6244435;28;20045;-69
2023/01/21 15:33:14;;;;;;;3.03;1.92;;;7.80;38.70;;;;;;6245972;28;20087;-70
2023/01/21 15:36:19;;;;;;;;;;;7.70;38.80;;;;;;6246047;28;20065;-69
2023/01/21 15:39:32;;;;;;;3.67;2.03;;;7.70;39.00;;;;;;6245471;28;19955;-69
2023/01/21 15:42:52;;;;;;;6.90;2.15;;;7.60;39.00;;;;;;6245508;28;20033;-67
2023/01/21 15:46:21;;;;;;;7.25;4.55;;;7.60;39.20;;;;;;6244834;28;20041;-69
2023/01/21 15:49:28;;;;;;;5.43;2.30;;;7.50;39.30;;;;;;6245803;28;20547;-69
2023/01/21 15:52:34;;;;;;;16.45;2.90;;;7.50;39.50;;;;;;6245919;28;20493;-69
2023/01/21 15:56:05;;;;;;;4.38;2.58;;;7.50;39.70;;;;;;6236847;28;20037;-70
2023/01/21 15:59:29;;;;;;;4.07;2.30;;;7.40;39.80;;;;;;6242771;28;20131;-71
2023/01/21 16:02:42;;;;;;;4.75;2.13;;;7.40;39.90;;;;;;6226381;28;20068;-69
2023/01/21 16:05:51;;;;;;;8.75;4.32;;;7.40;40.00;;;;;;6242980;28;20033;-71
2023/01/21 16:09:00;;;;;;;3.22;2.05;;;7.50;40.10;;;;;;6243125;28;20121;-69
2023/01/21 16:12:09;;;;;;;4.68;2.17;;;7.50;40.00;;;;;;6247110;28;20037;-68
2023/01/21 16:15:22;;;;;;;4.63;2.38;;;7.50;40.00;;;;;;6234058;28;20053;-70
2023/01/21 16:18:51;;;;;;;4.13;2.42;;;7.50;40.00;;;;;;6228706;28;20033;-71
2023/01/21 16:21:56;;;;;;;5.85;2.83;;;7.40;40.20;;;;;;6233554;28;20080;-70
2023/01/21 16:25:05;;;;;;;7.28;2.40;;;7.40;40.40;;;;;;6211805;28;20085;-70
2023/01/21 16:28:05;;;;;;;5.18;2.75;;;7.30;40.60;;;;;;6223742;28;20057;-71
2023/01/21 16:31:06;;;;;;;5.57;2.53;;;7.30;40.90;;;;;;6222987;28;20049;-72